sensor_id;sensor_type;location;lat;lon;timestamp;P1;durP1;ratioP1;P2;durP2;ratioP2
20531;SDS011;10424;52.102;8.084;2024-01-15T00:01:16;25.37;;;10.73;;
20531;SDS011;10424;52.102;8.084;2024-01-15T00:03:43;28.20;;;10.80;;
20531;SDS011;10424;52.102;8.084;2024-01-15T00:06:11;18.47;;;7.17;;
20531;SDS011;10424;52.102;8.084;2024-01-15T00:08:38;22.47;;;9.03;;
20531;SDS011;10424;52.102;8.084;2024-01-15T00:11:05;24.93;;;10.23;;
20531;SDS011;10424;52.102;8.084;2024-01-15T00:13:32;21.97;;;8.60;;
20531;SDS011;10424;52.102;8.084;2024-01-15T00:16:01;24.80;;;9.73;;
20531;SDS011;10424;52.102;8.084;2024-01-15T00:18:28;22.93;;;9.63;;
20531;SDS011;10424;52.102;8.084;2024-01-15T00:20:56;22.67;;;9.20;;
20531;SDS011;10424;52.102;8.084;2024-01-15T00:23:23;23.87;;;9.43;;
20531;SDS011;10424;52.102;8.084;2024-01-15T00:25:51;21.50;;;8.87;;
20531;SDS011;10424;52.102;8.084;2024-01-15T00:28:18;22.43;;;7.67;;
20531;SDS011;10424;52.102;8.084;2024-01-15T00:30:45;24.37;;;9.50;;
20531;SDS011;10424;52.102;8.084;2024-01-15T00:33:14;23.80;;;8.70;;
20531;SDS011;10424;52.102;8.084;2024-01-15T00:35:41;23.03;;;8.47;;
20531;SDS011;10424;52.102;8.084;2024-01-15T00:38:09;24.93;;;8.27;;
20531;SDS011;10424;52.102;8.084;2024-01-15T00:40:36;25.40;;;9.40;;
20531;SDS011;10424;52.102;8.084;2024-01-15T00:43:03;21.43;;;8.77;;
20531;SDS011;10424;52.102;8.084;2024-01-15T00:45:32;24.33;;;8.53;;
20531;SDS011;10424;52.102;8.084;2024-01-15T00:47:59;21.30;;;7.83;;
20531;SDS011;10424;52.102;8.084;2024-01-15T00:50:28;19.23;;;7.63;;
20531;SDS011;10424;52.102;8.084;2024-01-15T00:52:56;23.80;;;7.80;;
20531;SDS011;10424;52.102;8.084;2024-01-15T00:55:23;15.03;;;7.07;;
20531;SDS011;10424;52.102;8.084;2024-01-15T00:57:50;16.43;;;6.03;;
20531;SDS011;10424;52.102;8.084;2024-01-15T01:00:17;16.83;;;7.00;;
20531;SDS011;10424;52.102;8.084;2024-01-15T01:02:45;19.10;;;6.77;;
20531;SDS011;10424;52.102;8.084;2024-01-15T01:05:12;17.87;;;6.73;;
20531;SDS011;10424;52.102;8.084;2024-01-15T01:07:41;16.77;;;6.20;;
20531;SDS011;10424;52.102;8.084;2024-01-15T01:10:08;16.23;;;5.90;;
20531;SDS011;10424;52.102;8.084;2024-01-15T01:12:35;15.87;;;5.70;;
20531;SDS011;10424;52.102;8.084;2024-01-15T01:15:03;16.47;;;5.87;;
20531;SDS011;10424;52.102;8.084;2024-01-15T01:17:30;17.00;;;5.37;;
20531;SDS011;10424;52.102;8.084;2024-01-15T01:19:58;15.23;;;5.03;;
20531;SDS011;10424;52.102;8.084;2024-01-15T01:22:25;11.70;;;4.50;;
20531;SDS011;10424;52.102;8.084;2024-01-15T01:24:53;15.30;;;4.90;;
20531;SDS011;10424;52.102;8.084;2024-01-15T01:27:21;12.70;;;4.20;;
20531;SDS011;10424;52.102;8.084;2024-01-15T01:29:48;12.43;;;4.60;;
20531;SDS011;10424;52.102;8.084;2024-01-15T01:32:15;9.00;;;3.70;;
20531;SDS011;10424;52.102;8.084;2024-01-15T01:34:43;16.53;;;4.70;;
20531;SDS011;10424;52.102;8.084;2024-01-15T01:37:10;9.20;;;3.23;;
20531;SDS011;10424;52.102;8.084;2024-01-15T01:39:38;9.83;;;3.73;;
20531;SDS011;10424;52.102;8.084;2024-01-15T01:42:07;7.90;;;3.50;;
20531;SDS011;10424;52.102;8.084;2024-01-15T01:44:34;11.27;;;4.53;;
20531;SDS011;10424;52.102;8.084;2024-01-15T01:47:01;13.27;;;4.83;;
20531;SDS011;10424;52.102;8.084;2024-01-15T01:49:29;13.67;;;4.47;;
20531;SDS011;10424;52.102;8.084;2024-01-15T01:51:57;9.03;;;4.13;;
20531;SDS011;10424;52.102;8.084;2024-01-15T01:54:25;10.13;;;4.80;;
20531;SDS011;10424;52.102;8.084;2024-01-15T01:56:54;11.07;;;3.90;;
20531;SDS011;10424;52.102;8.084;2024-01-15T01:59:23;10.30;;;3.33;;
20531;SDS011;10424;52.102;8.084;2024-01-15T02:01:50;12.27;;;4.07;;
20531;SDS011;10424;52.102;8.084;2024-01-15T02:04:18;8.57;;;3.80;;
20531;SDS011;10424;52.102;8.084;2024-01-15T02:06:45;11.87;;;4.60;;
20531;SDS011;10424;52.102;8.084;2024-01-15T02:09:13;12.57;;;3.77;;
20531;SDS011;10424;52.102;8.084;2024-01-15T02:11:41;15.50;;;4.50;;
20531;SDS011;10424;52.102;8.084;2024-01-15T02:14:08;12.57;;;5.30;;
20531;SDS011;10424;52.102;8.084;2024-01-15T02:16:37;11.63;;;5.37;;
20531;SDS011;10424;52.102;8.084;2024-01-15T02:19:05;12.17;;;5.13;;
20531;SDS011;10424;52.102;8.084;2024-01-15T02:21:32;12.40;;;4.83;;
20531;SDS011;10424;52.102;8.084;2024-01-15T02:24:01;16.17;;;5.07;;
20531;SDS011;10424;52.102;8.084;2024-01-15T02:26:28;11.97;;;5.07;;
20531;SDS011;10424;52.102;8.084;2024-01-15T02:28:55;12.20;;;5.10;;
20531;SDS011;10424;52.102;8.084;2024-01-15T02:31:22;10.43;;;4.20;;
20531;SDS011;10424;52.102;8.084;2024-01-15T02:33:50;16.00;;;5.13;;
20531;SDS011;10424;52.102;8.084;2024-01-15T02:36:17;14.87;;;4.60;;
20531;SDS011;10424;52.102;8.084;2024-01-15T02:38:44;17.30;;;4.83;;
20531;SDS011;10424;52.102;8.084;2024-01-15T02:41:13;15.13;;;4.73;;
20531;SDS011;10424;52.102;8.084;2024-01-15T02:43:40;9.73;;;4.37;;
20531;SDS011;10424;52.102;8.084;2024-01-15T02:46:07;11.87;;;4.70;;
20531;SDS011;10424;52.102;8.084;2024-01-15T02:48:35;13.27;;;4.93;;
20531;SDS011;10424;52.102;8.084;2024-01-15T02:51:02;13.17;;;5.40;;
20531;SDS011;10424;52.102;8.084;2024-01-15T02:53:29;12.37;;;4.80;;
20531;SDS011;10424;52.102;8.084;2024-01-15T02:55:57;18.87;;;5.00;;
20531;SDS011;10424;52.102;8.084;2024-01-15T02:58:25;11.87;;;4.10;;
20531;SDS011;10424;52.102;8.084;2024-01-15T03:00:52;9.60;;;3.80;;
20531;SDS011;10424;52.102;8.084;2024-01-15T03:03:20;12.90;;;4.50;;
20531;SDS011;10424;52.102;8.084;2024-01-15T03:05:47;14.90;;;4.90;;
20531;SDS011;10424;52.102;8.084;2024-01-15T03:08:14;12.70;;;4.57;;
20531;SDS011;10424;52.102;8.084;2024-01-15T03:10:42;13.47;;;4.23;;
20531;SDS011;10424;52.102;8.084;2024-01-15T03:13:09;9.17;;;4.33;;
20531;SDS011;10424;52.102;8.084;2024-01-15T03:15:39;10.07;;;4.63;;
20531;SDS011;10424;52.102;8.084;2024-01-15T03:18:06;13.03;;;4.47;;
20531;SDS011;10424;52.102;8.084;2024-01-15T03:20:33;12.97;;;4.50;;
20531;SDS011;10424;52.102;8.084;2024-01-15T03:23:00;11.93;;;5.00;;
20531;SDS011;10424;52.102;8.084;2024-01-15T03:25:28;14.30;;;4.80;;
20531;SDS011;10424;52.102;8.084;2024-01-15T03:27:55;15.17;;;4.90;;
20531;SDS011;10424;52.102;8.084;2024-01-15T03:30:22;14.33;;;6.00;;
20531;SDS011;10424;52.102;8.084;2024-01-15T03:32:51;23.17;;;4.60;;
20531;SDS011;10424;52.102;8.084;2024-01-15T03:35:18;14.37;;;5.33;;
20531;SDS011;10424;52.102;8.084;2024-01-15T03:37:45;9.27;;;3.63;;
20531;SDS011;10424;52.102;8.084;2024-01-15T03:40:13;4.80;;;2.77;;
20531;SDS011;10424;52.102;8.084;2024-01-15T03:42:40;10.63;;;3.73;;
20531;SDS011;10424;52.102;8.084;2024-01-15T03:45:07;12.07;;;3.70;;
20531;SDS011;10424;52.102;8.084;2024-01-15T03:47:35;10.27;;;3.57;;
20531;SDS011;10424;52.102;8.084;2024-01-15T03:50:04;12.67;;;4.47;;
20531;SDS011;10424;52.102;8.084;2024-01-15T03:52:31;10.97;;;3.93;;
20531;SDS011;10424;52.102;8.084;2024-01-15T03:54:58;11.50;;;3.93;;
20531;SDS011;10424;52.102;8.084;2024-01-15T03:57:26;12.40;;;4.13;;
20531;SDS011;10424;52.102;8.084;2024-01-15T03:59:53;13.93;;;4.10;;
20531;SDS011;10424;52.102;8.084;2024-01-15T04:02:20;10.40;;;3.50;;
20531;SDS011;10424;52.102;8.084;2024-01-15T04:04:47;13.80;;;4.53;;
20531;SDS011;10424;52.102;8.084;2024-01-15T04:07:16;8.73;;;4.30;;
20531;SDS011;10424;52.102;8.084;2024-01-15T04:09:43;11.93;;;3.80;;
20531;SDS011;10424;52.102;8.084;2024-01-15T04:12:10;12.90;;;3.97;;
20531;SDS011;10424;52.102;8.084;2024-01-15T04:14:38;14.70;;;4.10;;
20531;SDS011;10424;52.102;8.084;2024-01-15T04:17:05;14.50;;;4.10;;
20531;SDS011;10424;52.102;8.084;2024-01-15T04:19:32;16.13;;;3.90;;
20531;SDS011;10424;52.102;8.084;2024-01-15T04:21:59;7.87;;;3.30;;
20531;SDS011;10424;52.102;8.084;2024-01-15T04:24:28;11.07;;;4.20;;
20531;SDS011;10424;52.102;8.084;2024-01-15T04:26:55;11.43;;;4.10;;
20531;SDS011;10424;52.102;8.084;2024-01-15T04:29:23;11.90;;;3.87;;
20531;SDS011;10424;52.102;8.084;2024-01-15T04:31:50;11.63;;;3.87;;
20531;SDS011;10424;52.102;8.084;2024-01-15T04:34:18;12.40;;;3.47;;
20531;SDS011;10424;52.102;8.084;2024-01-15T04:36:45;14.90;;;3.90;;
20531;SDS011;10424;52.102;8.084;2024-01-15T04:39:13;12.30;;;3.60;;
20531;SDS011;10424;52.102;8.084;2024-01-15T04:41:41;12.20;;;3.70;;
20531;SDS011;10424;52.102;8.084;2024-01-15T04:44:09;12.07;;;4.20;;
20531;SDS011;10424;52.102;8.084;2024-01-15T04:46:36;8.67;;;3.53;;
20531;SDS011;10424;52.102;8.084;2024-01-15T04:49:03;8.67;;;3.60;;
20531;SDS011;10424;52.102;8.084;2024-01-15T04:51:30;10.13;;;3.33;;
20531;SDS011;10424;52.102;8.084;2024-01-15T04:53:57;10.10;;;3.40;;
20531;SDS011;10424;52.102;8.084;2024-01-15T04:56:24;7.57;;;2.83;;
20531;SDS011;10424;52.102;8.084;2024-01-15T04:58:53;10.00;;;3.43;;
20531;SDS011;10424;52.102;8.084;2024-01-15T05:01:20;9.80;;;3.30;;
20531;SDS011;10424;52.102;8.084;2024-01-15T05:03:47;11.20;;;3.90;;
20531;SDS011;10424;52.102;8.084;2024-01-15T05:06:15;12.30;;;3.47;;
20531;SDS011;10424;52.102;8.084;2024-01-15T05:08:42;9.97;;;3.27;;
20531;SDS011;10424;52.102;8.084;2024-01-15T05:11:10;10.37;;;3.30;;
20531;SDS011;10424;52.102;8.084;2024-01-15T05:13:37;11.97;;;3.23;;
20531;SDS011;10424;52.102;8.084;2024-01-15T05:16:06;6.10;;;2.47;;
20531;SDS011;10424;52.102;8.084;2024-01-15T05:18:33;6.03;;;2.40;;
20531;SDS011;10424;52.102;8.084;2024-01-15T05:21:02;8.93;;;2.40;;
20531;SDS011;10424;52.102;8.084;2024-01-15T05:23:30;7.53;;;2.53;;
20531;SDS011;10424;52.102;8.084;2024-01-15T05:25:58;9.87;;;2.50;;
20531;SDS011;10424;52.102;8.084;2024-01-15T05:28:25;5.47;;;2.47;;
20531;SDS011;10424;52.102;8.084;2024-01-15T05:30:52;6.37;;;2.37;;
20531;SDS011;10424;52.102;8.084;2024-01-15T05:33:22;12.03;;;2.40;;
20531;SDS011;10424;52.102;8.084;2024-01-15T05:35:49;6.03;;;2.50;;
20531;SDS011;10424;52.102;8.084;2024-01-15T05:38:17;7.40;;;2.90;;
20531;SDS011;10424;52.102;8.084;2024-01-15T05:40:44;5.40;;;2.50;;
20531;SDS011;10424;52.102;8.084;2024-01-15T05:43:11;8.17;;;3.00;;
20531;SDS011;10424;52.102;8.084;2024-01-15T05:45:39;6.70;;;2.80;;
20531;SDS011;10424;52.102;8.084;2024-01-15T05:48:09;9.33;;;3.20;;
20531;SDS011;10424;52.102;8.084;2024-01-15T05:50:38;8.63;;;3.27;;
20531;SDS011;10424;52.102;8.084;2024-01-15T05:53:05;10.47;;;3.40;;
20531;SDS011;10424;52.102;8.084;2024-01-15T05:55:32;14.17;;;3.47;;
20531;SDS011;10424;52.102;8.084;2024-01-15T05:58:00;13.77;;;4.03;;
20531;SDS011;10424;52.102;8.084;2024-01-15T06:00:27;11.03;;;3.70;;
20531;SDS011;10424;52.102;8.084;2024-01-15T06:02:54;8.90;;;3.83;;
20531;SDS011;10424;52.102;8.084;2024-01-15T06:05:22;9.70;;;4.10;;
20531;SDS011;10424;52.102;8.084;2024-01-15T06:07:50;11.87;;;4.37;;
20531;SDS011;10424;52.102;8.084;2024-01-15T06:10:17;9.10;;;4.10;;
20531;SDS011;10424;52.102;8.084;2024-01-15T06:12:45;12.77;;;4.13;;
20531;SDS011;10424;52.102;8.084;2024-01-15T06:15:12;13.07;;;4.57;;
20531;SDS011;10424;52.102;8.084;2024-01-15T06:17:39;20.10;;;5.27;;
20531;SDS011;10424;52.102;8.084;2024-01-15T06:20:07;9.87;;;4.00;;
20531;SDS011;10424;52.102;8.084;2024-01-15T06:22:35;10.50;;;4.43;;
20531;SDS011;10424;52.102;8.084;2024-01-15T06:25:06;12.67;;;4.63;;
20531;SDS011;10424;52.102;8.084;2024-01-15T06:27:33;10.00;;;5.17;;
20531;SDS011;10424;52.102;8.084;2024-01-15T06:30:00;9.90;;;4.20;;
20531;SDS011;10424;52.102;8.084;2024-01-15T06:32:28;16.63;;;5.10;;
20531;SDS011;10424;52.102;8.084;2024-01-15T06:34:55;15.90;;;4.33;;
20531;SDS011;10424;52.102;8.084;2024-01-15T06:37:23;11.57;;;4.60;;
20531;SDS011;10424;52.102;8.084;2024-01-15T06:39:50;13.33;;;4.20;;
20531;SDS011;10424;52.102;8.084;2024-01-15T06:42:19;10.80;;;3.67;;
20531;SDS011;10424;52.102;8.084;2024-01-15T06:44:47;13.80;;;4.00;;
20531;SDS011;10424;52.102;8.084;2024-01-15T06:47:14;16.80;;;4.10;;
20531;SDS011;10424;52.102;8.084;2024-01-15T06:49:42;8.83;;;3.23;;
20531;SDS011;10424;52.102;8.084;2024-01-15T06:52:10;12.47;;;3.77;;
20531;SDS011;10424;52.102;8.084;2024-01-15T06:54:37;9.00;;;3.17;;
20531;SDS011;10424;52.102;8.084;2024-01-15T06:57:05;11.70;;;3.50;;
20531;SDS011;10424;52.102;8.084;2024-01-15T06:59:34;4.63;;;2.47;;
20531;SDS011;10424;52.102;8.084;2024-01-15T07:02:01;10.23;;;3.20;;
20531;SDS011;10424;52.102;8.084;2024-01-15T07:04:29;7.07;;;3.27;;
20531;SDS011;10424;52.102;8.084;2024-01-15T07:06:56;7.30;;;2.67;;
20531;SDS011;10424;52.102;8.084;2024-01-15T07:09:23;10.37;;;3.00;;
20531;SDS011;10424;52.102;8.084;2024-01-15T07:11:50;7.03;;;2.77;;
20531;SDS011;10424;52.102;8.084;2024-01-15T07:14:18;9.37;;;2.43;;
20531;SDS011;10424;52.102;8.084;2024-01-15T07:16:46;8.73;;;2.83;;
20531;SDS011;10424;52.102;8.084;2024-01-15T07:19:14;8.60;;;2.80;;
20531;SDS011;10424;52.102;8.084;2024-01-15T07:21:41;6.17;;;2.10;;
20531;SDS011;10424;52.102;8.084;2024-01-15T07:24:08;9.20;;;3.03;;
20531;SDS011;10424;52.102;8.084;2024-01-15T07:26:36;6.17;;;3.17;;
20531;SDS011;10424;52.102;8.084;2024-01-15T07:29:03;6.90;;;3.30;;
20531;SDS011;10424;52.102;8.084;2024-01-15T07:31:31;5.03;;;3.03;;
20531;SDS011;10424;52.102;8.084;2024-01-15T07:34:00;6.20;;;3.20;;
20531;SDS011;10424;52.102;8.084;2024-01-15T07:36:27;8.00;;;3.47;;
20531;SDS011;10424;52.102;8.084;2024-01-15T07:38:55;8.23;;;3.80;;
20531;SDS011;10424;52.102;8.084;2024-01-15T07:41:23;12.93;;;4.00;;
20531;SDS011;10424;52.102;8.084;2024-01-15T07:43:50;9.13;;;3.43;;
20531;SDS011;10424;52.102;8.084;2024-01-15T07:46:18;8.47;;;4.03;;
20531;SDS011;10424;52.102;8.084;2024-01-15T07:48:45;8.03;;;3.90;;
20531;SDS011;10424;52.102;8.084;2024-01-15T07:51:14;8.80;;;4.17;;
20531;SDS011;10424;52.102;8.084;2024-01-15T07:53:41;8.50;;;3.77;;
20531;SDS011;10424;52.102;8.084;2024-01-15T07:56:09;8.27;;;3.80;;
20531;SDS011;10424;52.102;8.084;2024-01-15T07:58:36;7.73;;;3.47;;
20531;SDS011;10424;52.102;8.084;2024-01-15T08:01:04;8.83;;;4.40;;
20531;SDS011;10424;52.102;8.084;2024-01-15T08:03:31;8.43;;;4.07;;
20531;SDS011;10424;52.102;8.084;2024-01-15T08:05:59;12.93;;;4.50;;
20531;SDS011;10424;52.102;8.084;2024-01-15T08:08:27;8.03;;;4.37;;
20531;SDS011;10424;52.102;8.084;2024-01-15T08:10:55;9.87;;;3.57;;
20531;SDS011;10424;52.102;8.084;2024-01-15T08:13:22;10.47;;;4.50;;
20531;SDS011;10424;52.102;8.084;2024-01-15T08:15:49;11.20;;;4.20;;
20531;SDS011;10424;52.102;8.084;2024-01-15T08:18:17;8.37;;;3.87;;
20531;SDS011;10424;52.102;8.084;2024-01-15T08:20:45;10.83;;;4.97;;
20531;SDS011;10424;52.102;8.084;2024-01-15T08:23:13;7.37;;;4.30;;
20531;SDS011;10424;52.102;8.084;2024-01-15T08:25:41;11.57;;;4.83;;
20531;SDS011;10424;52.102;8.084;2024-01-15T08:28:09;8.10;;;4.70;;
20531;SDS011;10424;52.102;8.084;2024-01-15T08:30:36;8.77;;;4.80;;
20531;SDS011;10424;52.102;8.084;2024-01-15T08:33:04;11.57;;;5.40;;
20531;SDS011;10424;52.102;8.084;2024-01-15T08:35:31;9.03;;;5.30;;
20531;SDS011;10424;52.102;8.084;2024-01-15T08:37:58;8.03;;;4.90;;
20531;SDS011;10424;52.102;8.084;2024-01-15T08:40:26;8.27;;;5.13;;
20531;SDS011;10424;52.102;8.084;2024-01-15T08:42:54;8.33;;;5.00;;
20531;SDS011;10424;52.102;8.084;2024-01-15T08:45:22;9.60;;;4.37;;
20531;SDS011;10424;52.102;8.084;2024-01-15T08:47:49;12.67;;;5.43;;
20531;SDS011;10424;52.102;8.084;2024-01-15T08:50:16;8.57;;;5.20;;
20531;SDS011;10424;52.102;8.084;2024-01-15T08:52:44;8.43;;;5.47;;
20531;SDS011;10424;52.102;8.084;2024-01-15T08:55:11;11.03;;;6.03;;
20531;SDS011;10424;52.102;8.084;2024-01-15T08:57:39;8.83;;;4.93;;
20531;SDS011;10424;52.102;8.084;2024-01-15T09:00:09;8.73;;;5.27;;
20531;SDS011;10424;52.102;8.084;2024-01-15T09:02:36;9.23;;;5.03;;
20531;SDS011;10424;52.102;8.084;2024-01-15T09:05:04;11.43;;;5.87;;
20531;SDS011;10424;52.102;8.084;2024-01-15T09:07:31;12.17;;;4.67;;
20531;SDS011;10424;52.102;8.084;2024-01-15T09:09:58;11.53;;;5.83;;
20531;SDS011;10424;52.102;8.084;2024-01-15T09:12:27;12.17;;;5.10;;
20531;SDS011;10424;52.102;8.084;2024-01-15T09:14:54;8.10;;;4.87;;
20531;SDS011;10424;52.102;8.084;2024-01-15T09:17:23;10.10;;;5.47;;
20531;SDS011;10424;52.102;8.084;2024-01-15T09:19:50;10.60;;;5.17;;
20531;SDS011;10424;52.102;8.084;2024-01-15T09:22:18;11.80;;;5.57;;
20531;SDS011;10424;52.102;8.084;2024-01-15T09:24:45;9.20;;;5.13;;
20531;SDS011;10424;52.102;8.084;2024-01-15T09:27:12;11.77;;;5.23;;
20531;SDS011;10424;52.102;8.084;2024-01-15T09:29:40;15.00;;;5.23;;
20531;SDS011;10424;52.102;8.084;2024-01-15T09:32:09;8.10;;;4.50;;
20531;SDS011;10424;52.102;8.084;2024-01-15T09:34:37;10.60;;;5.07;;
20531;SDS011;10424;52.102;8.084;2024-01-15T09:37:05;10.00;;;4.37;;
20531;SDS011;10424;52.102;8.084;2024-01-15T09:39:32;7.20;;;4.03;;
20531;SDS011;10424;52.102;8.084;2024-01-15T09:41:59;9.97;;;4.87;;
20531;SDS011;10424;52.102;8.084;2024-01-15T09:44:27;11.47;;;3.97;;
20531;SDS011;10424;52.102;8.084;2024-01-15T09:46:54;8.73;;;4.20;;
20531;SDS011;10424;52.102;8.084;2024-01-15T09:49:22;9.97;;;4.70;;
20531;SDS011;10424;52.102;8.084;2024-01-15T09:51:51;10.00;;;4.67;;
20531;SDS011;10424;52.102;8.084;2024-01-15T09:54:18;9.63;;;4.33;;
20531;SDS011;10424;52.102;8.084;2024-01-15T09:56:46;10.33;;;3.60;;
20531;SDS011;10424;52.102;8.084;2024-01-15T09:59:14;9.73;;;3.80;;
20531;SDS011;10424;52.102;8.084;2024-01-15T10:01:43;6.70;;;3.43;;
20531;SDS011;10424;52.102;8.084;2024-01-15T10:04:10;8.70;;;4.00;;
20531;SDS011;10424;52.102;8.084;2024-01-15T10:06:38;10.13;;;3.60;;
20531;SDS011;10424;52.102;8.084;2024-01-15T10:09:07;8.07;;;3.50;;
20531;SDS011;10424;52.102;8.084;2024-01-15T10:11:34;8.40;;;3.17;;
20531;SDS011;10424;52.102;8.084;2024-01-15T10:14:02;11.17;;;4.00;;
20531;SDS011;10424;52.102;8.084;2024-01-15T10:16:29;6.53;;;3.03;;
20531;SDS011;10424;52.102;8.084;2024-01-15T10:18:57;7.70;;;3.53;;
20531;SDS011;10424;52.102;8.084;2024-01-15T10:21:24;12.90;;;4.07;;
20531;SDS011;10424;52.102;8.084;2024-01-15T10:23:52;7.90;;;3.47;;
20531;SDS011;10424;52.102;8.084;2024-01-15T10:26:25;10.10;;;3.57;;
20531;SDS011;10424;52.102;8.084;2024-01-15T10:28:53;5.83;;;3.33;;
20531;SDS011;10424;52.102;8.084;2024-01-15T10:31:20;5.77;;;3.03;;
20531;SDS011;10424;52.102;8.084;2024-01-15T10:33:47;4.60;;;2.50;;
20531;SDS011;10424;52.102;8.084;2024-01-15T10:36:15;8.40;;;3.00;;
20531;SDS011;10424;52.102;8.084;2024-01-15T10:38:43;5.70;;;2.63;;
20531;SDS011;10424;52.102;8.084;2024-01-15T10:41:10;8.90;;;3.57;;
20531;SDS011;10424;52.102;8.084;2024-01-15T10:43:39;7.57;;;2.70;;
20531;SDS011;10424;52.102;8.084;2024-01-15T10:46:07;3.93;;;2.57;;
20531;SDS011;10424;52.102;8.084;2024-01-15T10:48:34;5.67;;;2.60;;
20531;SDS011;10424;52.102;8.084;2024-01-15T10:51:01;6.97;;;2.70;;
20531;SDS011;10424;52.102;8.084;2024-01-15T10:53:35;6.30;;;2.07;;
20531;SDS011;10424;52.102;8.084;2024-01-15T10:56:02;7.33;;;2.67;;
20531;SDS011;10424;52.102;8.084;2024-01-15T10:58:31;7.43;;;2.40;;
20531;SDS011;10424;52.102;8.084;2024-01-15T11:00:59;4.93;;;2.37;;
20531;SDS011;10424;52.102;8.084;2024-01-15T11:03:27;8.37;;;2.30;;
20531;SDS011;10424;52.102;8.084;2024-01-15T11:05:54;6.60;;;2.10;;
20531;SDS011;10424;52.102;8.084;2024-01-15T11:08:22;6.50;;;2.40;;
20531;SDS011;10424;52.102;8.084;2024-01-15T11:10:50;5.93;;;2.30;;
20531;SDS011;10424;52.102;8.084;2024-01-15T11:13:20;4.70;;;2.30;;
20531;SDS011;10424;52.102;8.084;2024-01-15T11:15:56;7.67;;;2.70;;
20531;SDS011;10424;52.102;8.084;2024-01-15T11:18:27;7.40;;;2.83;;
20531;SDS011;10424;52.102;8.084;2024-01-15T11:23:43;4.83;;;2.77;;
20531;SDS011;10424;52.102;8.084;2024-01-15T11:26:26;8.33;;;2.67;;
20531;SDS011;10424;52.102;8.084;2024-01-15T11:28:54;6.70;;;3.27;;
20531;SDS011;10424;52.102;8.084;2024-01-15T11:31:25;7.60;;;3.00;;
20531;SDS011;10424;52.102;8.084;2024-01-15T11:33:54;5.97;;;3.00;;
20531;SDS011;10424;52.102;8.084;2024-01-15T11:36:22;7.77;;;3.20;;
20531;SDS011;10424;52.102;8.084;2024-01-15T11:41:51;5.90;;;3.50;;
20531;SDS011;10424;52.102;8.084;2024-01-15T11:44:19;11.60;;;3.17;;
20531;SDS011;10424;52.102;8.084;2024-01-15T11:46:49;8.60;;;3.67;;
20531;SDS011;10424;52.102;8.084;2024-01-15T11:49:26;6.37;;;3.10;;
20531;SDS011;10424;52.102;8.084;2024-01-15T11:51:57;7.60;;;2.90;;
20531;SDS011;10424;52.102;8.084;2024-01-15T11:54:26;5.33;;;3.00;;
20531;SDS011;10424;52.102;8.084;2024-01-15T11:56:55;7.57;;;2.87;;
20531;SDS011;10424;52.102;8.084;2024-01-15T11:59:23;7.13;;;3.10;;
20531;SDS011;10424;52.102;8.084;2024-01-15T12:01:50;7.27;;;2.90;;
20531;SDS011;10424;52.102;8.084;2024-01-15T12:04:20;7.33;;;3.33;;
20531;SDS011;10424;52.102;8.084;2024-01-15T12:06:49;8.13;;;2.90;;
20531;SDS011;10424;52.102;8.084;2024-01-15T12:09:18;8.40;;;3.23;;
20531;SDS011;10424;52.102;8.084;2024-01-15T12:11:48;6.00;;;3.20;;
20531;SDS011;10424;52.102;8.084;2024-01-15T12:14:17;9.13;;;3.30;;
20531;SDS011;10424;52.102;8.084;2024-01-15T12:16:45;8.70;;;3.00;;
20531;SDS011;10424;52.102;8.084;2024-01-15T12:19:13;6.13;;;2.77;;
20531;SDS011;10424;52.102;8.084;2024-01-15T12:21:40;6.37;;;2.40;;
20531;SDS011;10424;52.102;8.084;2024-01-15T12:24:09;7.47;;;2.93;;
20531;SDS011;10424;52.102;8.084;2024-01-15T12:26:36;9.00;;;3.00;;
20531;SDS011;10424;52.102;8.084;2024-01-15T12:29:05;6.00;;;2.73;;
20531;SDS011;10424;52.102;8.084;2024-01-15T12:31:33;6.07;;;3.00;;
20531;SDS011;10424;52.102;8.084;2024-01-15T12:34:01;6.93;;;2.90;;
20531;SDS011;10424;52.102;8.084;2024-01-15T12:36:30;6.23;;;2.60;;
20531;SDS011;10424;52.102;8.084;2024-01-15T12:38:58;5.40;;;2.57;;
20531;SDS011;10424;52.102;8.084;2024-01-15T12:41:27;6.33;;;2.97;;
20531;SDS011;10424;52.102;8.084;2024-01-15T12:43:54;6.73;;;2.67;;
20531;SDS011;10424;52.102;8.084;2024-01-15T12:46:23;4.17;;;2.47;;
20531;SDS011;10424;52.102;8.084;2024-01-15T12:48:50;4.17;;;2.07;;
20531;SDS011;10424;52.102;8.084;2024-01-15T12:51:18;6.10;;;2.23;;
20531;SDS011;10424;52.102;8.084;2024-01-15T12:53:45;5.13;;;2.90;;
20531;SDS011;10424;52.102;8.084;2024-01-15T12:56:12;7.10;;;2.97;;
20531;SDS011;10424;52.102;8.084;2024-01-15T12:58:41;11.37;;;2.77;;
20531;SDS011;10424;52.102;8.084;2024-01-15T13:01:08;4.20;;;2.33;;
20531;SDS011;10424;52.102;8.084;2024-01-15T13:03:36;5.10;;;2.67;;
20531;SDS011;10424;52.102;8.084;2024-01-15T13:06:04;4.60;;;2.30;;
20531;SDS011;10424;52.102;8.084;2024-01-15T13:08:31;3.97;;;2.27;;
20531;SDS011;10424;52.102;8.084;2024-01-15T13:10:58;3.57;;;2.10;;
20531;SDS011;10424;52.102;8.084;2024-01-15T13:13:26;5.33;;;2.40;;
20531;SDS011;10424;52.102;8.084;2024-01-15T13:15:54;9.33;;;2.43;;
20531;SDS011;10424;52.102;8.084;2024-01-15T13:18:22;4.97;;;2.57;;
20531;SDS011;10424;52.102;8.084;2024-01-15T13:20:49;7.00;;;2.93;;
20531;SDS011;10424;52.102;8.084;2024-01-15T13:23:17;5.93;;;2.67;;
20531;SDS011;10424;52.102;8.084;2024-01-15T13:25:45;5.80;;;2.43;;
20531;SDS011;10424;52.102;8.084;2024-01-15T13:28:12;4.40;;;2.30;;
20531;SDS011;10424;52.102;8.084;2024-01-15T13:30:40;9.53;;;3.10;;
20531;SDS011;10424;52.102;8.084;2024-01-15T13:33:08;3.87;;;2.30;;
20531;SDS011;10424;52.102;8.084;2024-01-15T13:35:36;5.73;;;2.70;;
20531;SDS011;10424;52.102;8.084;2024-01-15T13:38:03;4.17;;;2.47;;
20531;SDS011;10424;52.102;8.084;2024-01-15T13:40:30;5.37;;;2.50;;
20531;SDS011;10424;52.102;8.084;2024-01-15T13:42:58;4.57;;;2.60;;
20531;SDS011;10424;52.102;8.084;2024-01-15T13:45:25;5.73;;;2.80;;
20531;SDS011;10424;52.102;8.084;2024-01-15T13:47:52;5.60;;;2.80;;
20531;SDS011;10424;52.102;8.084;2024-01-15T13:50:21;5.67;;;3.10;;
20531;SDS011;10424;52.102;8.084;2024-01-15T13:52:48;5.80;;;2.30;;
20531;SDS011;10424;52.102;8.084;2024-01-15T13:55:16;4.67;;;2.60;;
20531;SDS011;10424;52.102;8.084;2024-01-15T13:57:43;7.80;;;2.90;;
20531;SDS011;10424;52.102;8.084;2024-01-15T14:00:11;5.13;;;2.73;;
20531;SDS011;10424;52.102;8.084;2024-01-15T14:02:43;7.73;;;4.30;;
20531;SDS011;10424;52.102;8.084;2024-01-15T14:05:11;4.87;;;2.90;;
20531;SDS011;10424;52.102;8.084;2024-01-15T14:07:40;9.23;;;5.63;;
20531;SDS011;10424;52.102;8.084;2024-01-15T14:10:09;6.87;;;3.57;;
20531;SDS011;10424;52.102;8.084;2024-01-15T14:12:37;5.90;;;2.63;;
20531;SDS011;10424;52.102;8.084;2024-01-15T14:15:05;7.43;;;2.30;;
20531;SDS011;10424;52.102;8.084;2024-01-15T14:17:32;7.93;;;2.40;;
20531;SDS011;10424;52.102;8.084;2024-01-15T14:19:59;2.93;;;2.00;;
20531;SDS011;10424;52.102;8.084;2024-01-15T14:22:30;5.10;;;2.70;;
20531;SDS011;10424;52.102;8.084;2024-01-15T14:24:58;4.13;;;2.20;;
20531;SDS011;10424;52.102;8.084;2024-01-15T14:27:26;4.83;;;2.17;;
20531;SDS011;10424;52.102;8.084;2024-01-15T14:29:53;4.30;;;2.17;;
20531;SDS011;10424;52.102;8.084;2024-01-15T14:32:20;4.23;;;2.00;;
20531;SDS011;10424;52.102;8.084;2024-01-15T14:34:48;4.47;;;1.97;;
20531;SDS011;10424;52.102;8.084;2024-01-15T14:37:15;2.40;;;1.47;;
20531;SDS011;10424;52.102;8.084;2024-01-15T14:39:42;2.67;;;1.70;;
20531;SDS011;10424;52.102;8.084;2024-01-15T14:42:11;2.10;;;1.73;;
20531;SDS011;10424;52.102;8.084;2024-01-15T14:44:38;3.93;;;1.70;;
20531;SDS011;10424;52.102;8.084;2024-01-15T14:47:06;4.33;;;1.60;;
20531;SDS011;10424;52.102;8.084;2024-01-15T14:49:34;3.87;;;1.63;;